N722CP KBDU-KEGE
Flight info
| Callsign | N722CP |
|---|---|
| Flight time | N/A |
| Altitude | 17000 |
| Route | VFR |
| Aircraft | BE9L/L-V/N |
Departure
| Time | 2026-05-06 21:08 |
|---|---|
| Airport | Boulder Municipal Airport (KBDU) |
Arrival
| Time | N/A |
|---|---|
| Airport | Eagle County Regional Airport (KEGE) |
| Time | Latitude | Longitude | Altitude | Speed | Heading |
|---|---|---|---|---|---|
| 2026-05-06 20:59 | 40.03986 | -105.22627 | 5280 ft | 0 kts | 187° |
| 2026-05-06 21:05 | 40.03977 | -105.22649 | 5281 ft | 10 kts | 267° |
| 2026-05-06 21:06 | 40.03962 | -105.22771 | 5282 ft | 15 kts | 270° |
| 2026-05-06 21:06 | 40.03960 | -105.22918 | 5283 ft | 16 kts | 269° |
| 2026-05-06 21:06 | 40.03960 | -105.23065 | 5285 ft | 16 kts | 269° |
| 2026-05-06 21:06 | 40.03961 | -105.23222 | 5283 ft | 18 kts | 270° |
| 2026-05-06 21:07 | 40.03935 | -105.23336 | 5282 ft | 6 kts | 191° |
| 2026-05-06 21:07 | 40.03914 | -105.23335 | 5282 ft | 9 kts | 143° |
| 2026-05-06 21:07 | 40.03907 | -105.23109 | 5285 ft | 47 kts | 91° |
| 2026-05-06 21:07 | 40.03907 | -105.22437 | 5278 ft | 95 kts | 91° |
| 2026-05-06 21:08 | 40.03906 | -105.21460 | 5333 ft | 113 kts | 90° |
| 2026-05-06 21:08 | 40.03865 | -105.20438 | 5596 ft | 114 kts | 101° |
| 2026-05-06 21:08 | 40.03668 | -105.19423 | 5835 ft | 120 kts | 106° |
| 2026-05-06 21:08 | 40.03390 | -105.18381 | 6090 ft | 123 kts | 109° |
| 2026-05-06 21:09 | 40.03054 | -105.17310 | 6278 ft | 136 kts | 113° |
| 2026-05-06 21:09 | 40.02642 | -105.16150 | 6449 ft | 147 kts | 115° |
| 2026-05-06 21:09 | 40.02162 | -105.14968 | 6735 ft | 147 kts | 118° |
| 2026-05-06 21:09 | 40.01624 | -105.13840 | 7043 ft | 147 kts | 116° |
| 2026-05-06 21:10 | 40.01159 | -105.12616 | 7252 ft | 153 kts | 119° |
| 2026-05-06 21:10 | 40.00548 | -105.11484 | 7452 ft | 159 kts | 133° |
| 2026-05-06 21:10 | 39.99672 | -105.10529 | 7680 ft | 161 kts | 140° |
| 2026-05-06 21:10 | 39.98813 | -105.09583 | 7828 ft | 169 kts | 136° |
| 2026-05-06 21:11 | 39.97970 | -105.08453 | 8024 ft | 170 kts | 134° |
| 2026-05-06 21:11 | 39.97144 | -105.07369 | 8204 ft | 174 kts | 134° |
| 2026-05-06 21:11 | 39.96273 | -105.06201 | 8339 ft | 178 kts | 134° |
| 2026-05-06 21:11 | 39.95485 | -105.05011 | 8573 ft | 176 kts | 125° |
| 2026-05-06 21:12 | 39.94695 | -105.03695 | 8545 ft | 189 kts | 130° |
| 2026-05-06 21:12 | 39.93775 | -105.02502 | 8840 ft | 181 kts | 131° |
| 2026-05-06 21:12 | 39.93030 | -105.01160 | 8877 ft | 190 kts | 118° |
| 2026-05-06 21:12 | 39.92441 | -104.99600 | 8991 ft | 189 kts | 109° |
| 2026-05-06 21:13 | 39.91971 | -104.97999 | 9030 ft | 197 kts | 108° |
| 2026-05-06 21:13 | 39.91484 | -104.96294 | 9035 ft | 200 kts | 105° |
| 2026-05-06 21:13 | 39.91309 | -104.94587 | 9219 ft | 191 kts | 81° |
| 2026-05-06 21:13 | 39.91691 | -104.92909 | 9171 ft | 195 kts | 58° |
| 2026-05-06 21:14 | 39.92522 | -104.91542 | 9352 ft | 186 kts | 42° |
| 2026-05-06 21:14 | 39.93470 | -104.90460 | 9552 ft | 180 kts | 34° |
| 2026-05-06 21:14 | 39.94526 | -104.89515 | 9507 ft | 187 kts | 28° |
| 2026-05-06 21:14 | 39.95632 | -104.88635 | 9659 ft | 183 kts | 27° |
| 2026-05-06 21:15 | 39.96685 | -104.87752 | 9809 ft | 182 kts | 32° |
| 2026-05-06 21:15 | 39.97693 | -104.86702 | 9800 ft | 188 kts | 37° |
| 2026-05-06 21:15 | 39.98646 | -104.85516 | 9932 ft | 187 kts | 41° |
| 2026-05-06 21:15 | 39.99455 | -104.84180 | 10015 ft | 191 kts | 54° |
| 2026-05-06 21:16 | 39.99887 | -104.82480 | 9901 ft | 208 kts | 80° |
| 2026-05-06 21:16 | 39.99683 | -104.80576 | 9942 ft | 211 kts | 98° |
| 2026-05-06 21:16 | 39.99407 | -104.78783 | 10322 ft | 195 kts | 97° |
| 2026-05-06 21:16 | 39.99088 | -104.77027 | 10241 ft | 207 kts | 99° |
| 2026-05-06 21:17 | 39.98761 | -104.75208 | 10322 ft | 206 kts | 98° |
| 2026-05-06 21:17 | 39.98399 | -104.73338 | 10218 ft | 215 kts | 101° |
| 2026-05-06 21:17 | 39.97952 | -104.71488 | 10291 ft | 213 kts | 103° |
| 2026-05-06 21:17 | 39.97493 | -104.69663 | 10417 ft | 207 kts | 104° |
| 2026-05-06 21:18 | 39.96740 | -104.68147 | 10055 ft | 212 kts | 151° |
| 2026-05-06 21:18 | 39.95334 | -104.68150 | 9794 ft | 197 kts | 202° |
| 2026-05-06 21:18 | 39.94323 | -104.69229 | 9435 ft | 187 kts | 239° |
| 2026-05-06 21:18 | 39.93602 | -104.70623 | 9150 ft | 185 kts | 244° |
| 2026-05-06 21:19 | 39.93100 | -104.72196 | 8590 ft | 195 kts | 259° |
| 2026-05-06 21:19 | 39.93002 | -104.73940 | 8119 ft | 193 kts | 279° |
| 2026-05-06 21:19 | 39.93481 | -104.75507 | 7767 ft | 183 kts | 310° |
| 2026-05-06 21:19 | 39.94493 | -104.76361 | 7567 ft | 170 kts | 344° |
| 2026-05-06 21:20 | 39.95581 | -104.76304 | 7577 ft | 155 kts | 22° |
| 2026-05-06 21:20 | 39.96493 | -104.75584 | 7548 ft | 145 kts | 36° |
| 2026-05-06 21:20 | 39.97072 | -104.74600 | 7614 ft | 137 kts | 64° |
| 2026-05-06 21:20 | 39.97078 | -104.73421 | 7756 ft | 134 kts | 116° |
| 2026-05-06 21:21 | 39.96307 | -104.72670 | 7343 ft | 152 kts | 154° |
| 2026-05-06 21:21 | 39.95408 | -104.71943 | 6981 ft | 155 kts | 136° |
| 2026-05-06 21:21 | 39.94709 | -104.70941 | 6536 ft | 142 kts | 130° |
| 2026-05-06 21:21 | 39.94009 | -104.70130 | 6298 ft | 130 kts | 145° |
| 2026-05-06 21:22 | 39.93228 | -104.69724 | 6140 ft | 125 kts | 169° |
| 2026-05-06 21:22 | 39.92345 | -104.69602 | 6046 ft | 126 kts | 178° |
| 2026-05-06 21:22 | 39.91460 | -104.69600 | 5895 ft | 126 kts | 181° |
| 2026-05-06 21:22 | 39.90622 | -104.69620 | 5719 ft | 122 kts | 179° |
| 2026-05-06 21:23 | 39.89777 | -104.69611 | 5541 ft | 118 kts | 180° |
| 2026-05-06 21:23 | 39.89049 | -104.69614 | 5437 ft | 80 kts | 181° |
| 2026-05-06 21:23 | 39.88661 | -104.69622 | 5437 ft | 38 kts | 179° |
| 2026-05-06 21:23 | 39.88477 | -104.69525 | 5437 ft | 25 kts | 100° |